Time;durP1;ratioP1;P1;durP2;ratioP2;P2;SDS_P1;SDS_P2;PMS_P1;PMS_P2;Temp;Humidity;BMP_temperature;BMP_pressure;BME280_temperature;BME280_humidity;BME280_pressure;Samples;Min_cycle;Max_cycle;Signal;HPM_P1;HPM_P2
2023/03/05 00:01:32;;;;;;;8.80;1.93;;;5.00;99.90;;;;;;5100873;28;20178;-80
2023/03/05 00:03:58;;;;;;;10.67;1.83;;;5.10;99.90;;;;;;5082346;28;20167;-80
2023/03/05 00:06:26;;;;;;;6.97;2.33;;;5.00;99.90;;;;;;5100322;28;20623;-80
2023/03/05 00:08:52;;;;;;;10.30;1.83;;;5.00;99.90;;;;;;5100424;28;20206;-80
2023/03/05 00:11:19;;;;;;;6.77;1.90;;;5.00;99.90;;;;;;5100443;28;20197;-80
2023/03/05 00:13:44;;;;;;;8.13;2.17;;;5.00;99.90;;;;;;5085570;28;20170;-81
2023/03/05 00:16:14;;;;;;;8.27;1.70;;;5.00;99.90;;;;;;5103758;28;20569;-81
2023/03/05 00:18:39;;;;;;;10.60;2.07;;;5.00;99.90;;;;;;5104577;28;20174;-81
2023/03/05 00:21:17;;;;;;;13.20;2.60;;;5.00;99.90;;;;;;5104236;28;20269;-81
2023/03/05 00:23:43;;;;;;;9.03;1.83;;;5.00;99.90;;;;;;5104724;28;20238;-80
2023/03/05 00:26:08;;;;;;;7.10;2.30;;;4.90;99.90;;;;;;5085150;28;20212;-80
2023/03/05 00:28:34;;;;;;;9.03;2.03;;;5.00;99.90;;;;;;5104171;28;20170;-80
2023/03/05 00:31:00;;;;;;;8.40;2.17;;;4.90;99.90;;;;;;5084460;28;20203;-81
2023/03/05 00:33:26;;;;;;;12.20;2.00;;;4.90;99.90;;;;;;5085746;28;20178;-81
2023/03/05 00:35:52;;;;;;;8.83;2.20;;;5.00;99.90;;;;;;5104042;28;20209;-80
2023/03/05 00:38:17;;;;;;;10.73;2.10;;;5.00;99.90;;;;;;5104985;28;20171;-81
2023/03/05 00:40:43;;;;;;;9.23;2.10;;;5.00;99.90;;;;;;5087055;28;20186;-80
2023/03/05 00:43:09;;;;;;;6.50;1.83;;;4.90;99.90;;;;;;5105260;28;20166;-80
2023/03/05 00:45:34;;;;;;;10.30;1.90;;;4.90;99.90;;;;;;5086280;28;20218;-80
2023/03/05 00:48:00;;;;;;;10.30;2.03;;;4.90;99.90;;;;;;5086703;28;20199;-80
2023/03/05 00:50:26;;;;;;;6.03;1.90;;;4.90;99.90;;;;;;5106724;28;20220;-82
2023/03/05 00:52:52;;;;;;;6.73;1.70;;;4.90;99.90;;;;;;5090128;28;20237;-80
2023/03/05 00:55:18;;;;;;;9.60;1.83;;;4.90;99.90;;;;;;5106934;28;20182;-80
2023/03/05 00:57:44;;;;;;;5.63;1.57;;;4.90;99.90;;;;;;5085824;28;20665;-80
2023/03/05 01:00:10;;;;;;;9.03;1.90;;;4.90;99.90;;;;;;5104574;28;20170;-81
2023/03/05 01:02:36;;;;;;;7.70;2.00;;;4.80;99.90;;;;;;5085780;28;20211;-80
2023/03/05 01:05:02;;;;;;;9.20;1.60;;;4.80;99.90;;;;;;5104355;28;20202;-80
2023/03/05 01:07:28;;;;;;;5.20;1.73;;;4.80;99.90;;;;;;5103753;28;20268;-81
2023/03/05 01:09:54;;;;;;;4.63;1.63;;;4.80;99.90;;;;;;5085267;28;20178;-80
2023/03/05 01:12:19;;;;;;;5.80;2.10;;;4.80;99.90;;;;;;5103989;28;20191;-80
2023/03/05 01:14:45;;;;;;;5.43;1.83;;;4.80;99.90;;;;;;5103834;28;20186;-80
2023/03/05 01:17:10;;;;;;;11.93;2.20;;;4.70;99.90;;;;;;5085182;28;20235;-80
2023/03/05 01:19:36;;;;;;;9.17;2.37;;;4.70;99.90;;;;;;5103761;28;20295;-80
2023/03/05 01:22:01;;;;;;;8.13;1.80;;;4.80;99.90;;;;;;5104175;28;20186;-80
2023/03/05 01:24:29;;;;;;;9.70;1.93;;;4.80;99.90;;;;;;5102654;28;20253;-80
2023/03/05 01:26:54;;;;;;;8.53;1.87;;;4.70;99.90;;;;;;5103380;28;20189;-81
2023/03/05 01:29:20;;;;;;;5.43;1.90;;;4.70;99.90;;;;;;5102913;28;20202;-80
2023/03/05 01:31:45;;;;;;;8.73;1.90;;;4.70;99.90;;;;;;5103348;28;20209;-80
2023/03/05 01:34:12;;;;;;;10.80;2.60;;;4.70;99.90;;;;;;5084540;28;20174;-80
2023/03/05 01:36:40;;;;;;;7.27;1.97;;;4.70;99.90;;;;;;5085278;28;20265;-80
2023/03/05 01:39:05;;;;;;;11.57;1.93;;;4.70;99.90;;;;;;5086066;28;20185;-81
2023/03/05 01:41:32;;;;;;;3.87;1.47;;;4.70;99.90;;;;;;5103620;28;20194;-80
2023/03/05 01:43:58;;;;;;;10.13;2.20;;;4.70;99.90;;;;;;5085789;28;20175;-81
2023/03/05 01:46:53;;;;;;;5.93;2.20;;;4.60;99.90;;;;;;5103840;28;20495;-81
2023/03/05 01:49:26;;;;;;;6.03;1.83;;;4.60;99.90;;;;;;5087494;28;20677;-80
2023/03/05 01:52:16;;;;;;;7.03;1.80;;;4.60;99.90;;;;;;5105181;28;20565;-80
2023/03/05 01:55:05;;;;;;;9.97;2.23;;;4.60;99.90;;;;;;5085891;28;20186;-80
2023/03/05 01:57:51;;;;;;;4.60;1.77;;;4.60;99.90;;;;;;5104686;28;20206;-81
2023/03/05 02:00:21;;;;;;;9.17;2.30;;;4.60;99.90;;;;;;5105392;28;20165;-80
2023/03/05 02:02:49;;;;;;;8.33;2.17;;;4.60;99.90;;;;;;5105331;28;20201;-80
2023/03/05 02:05:25;;;;;;;6.90;1.97;;;4.40;99.90;;;;;;5105878;28;20170;-80
2023/03/05 02:07:54;;;;;;;6.67;2.17;;;4.50;99.90;;;;;;5105562;28;20657;-80
2023/03/05 02:10:24;;;;;;;10.03;2.00;;;4.60;99.90;;;;;;5101274;28;20243;-80
2023/03/05 02:12:51;;;;;;;6.23;1.90;;;4.60;99.90;;;;;;5101489;28;20174;-81
2023/03/05 02:15:18;;;;;;;6.27;1.90;;;4.60;99.90;;;;;;5107370;28;20179;-80
2023/03/05 02:17:44;;;;;;;13.87;2.53;;;4.60;99.90;;;;;;5103379;28;20232;-81
2023/03/05 02:20:24;;;;;;;7.57;1.90;;;4.50;99.90;;;;;;5102109;28;20583;-81
2023/03/05 02:22:50;;;;;;;14.13;2.40;;;4.60;99.90;;;;;;5084436;28;20170;-80
2023/03/05 02:25:22;;;;;;;6.07;1.80;;;4.60;99.90;;;;;;5085101;28;20198;-80
2023/03/05 02:28:26;;;;;;;5.23;2.00;;;4.60;99.90;;;;;;5103716;28;20170;-80
2023/03/05 02:30:52;;;;;;;8.37;2.00;;;4.50;99.90;;;;;;5079025;28;20210;-81
2023/03/05 02:33:18;;;;;;;8.23;2.03;;;4.60;99.90;;;;;;5085088;28;20186;-81
2023/03/05 02:35:45;;;;;;;5.63;1.87;;;4.60;99.90;;;;;;5085092;28;20202;-80
2023/03/05 02:38:13;;;;;;;8.07;2.30;;;4.50;99.90;;;;;;5103145;28;20173;-80
2023/03/05 02:40:38;;;;;;;9.17;2.03;;;4.60;99.90;;;;;;5084393;28;20218;-80
2023/03/05 02:43:05;;;;;;;11.30;2.13;;;4.50;99.90;;;;;;5103538;28;20185;-80
2023/03/05 02:45:32;;;;;;;9.23;2.50;;;4.50;99.90;;;;;;5084933;28;20681;-80
2023/03/05 02:47:57;;;;;;;6.63;1.77;;;4.50;99.90;;;;;;5084183;28;20185;-80
2023/03/05 02:50:25;;;;;;;8.10;2.17;;;4.50;99.90;;;;;;5084272;28;20170;-81
2023/03/05 02:52:50;;;;;;;10.97;2.37;;;4.40;99.90;;;;;;5102677;28;20173;-80
2023/03/05 02:55:16;;;;;;;7.60;2.37;;;4.50;99.90;;;;;;5084600;28;20238;-81
2023/03/05 02:57:41;;;;;;;5.80;2.00;;;4.40;99.90;;;;;;5085505;28;20566;-80
2023/03/05 03:00:08;;;;;;;5.57;2.30;;;4.40;99.90;;;;;;5085002;28;20170;-80
2023/03/05 03:02:33;;;;;;;8.10;2.20;;;4.40;99.90;;;;;;5109818;28;20155;-80
2023/03/05 03:04:59;;;;;;;11.47;2.43;;;4.40;99.90;;;;;;5117968;28;20196;-80
2023/03/05 03:07:25;;;;;;;5.53;2.47;;;4.40;99.90;;;;;;5117218;28;20205;-81
2023/03/05 03:09:50;;;;;;;10.73;2.07;;;4.40;99.90;;;;;;5110934;28;20174;-80
2023/03/05 03:12:16;;;;;;;6.37;1.83;;;4.40;99.90;;;;;;5112583;28;20178;-81
2023/03/05 03:14:42;;;;;;;5.93;1.90;;;4.40;99.90;;;;;;5102975;28;20228;-81
2023/03/05 03:17:10;;;;;;;7.90;1.53;;;4.40;99.90;;;;;;5083425;28;20214;-80
2023/03/05 03:19:36;;;;;;;5.10;1.67;;;4.40;99.90;;;;;;5083219;28;20205;-80
2023/03/05 03:22:02;;;;;;;9.33;1.53;;;4.40;99.90;;;;;;5101275;28;20190;-81
2023/03/05 03:24:32;;;;;;;4.37;1.67;;;4.30;99.90;;;;;;5101803;28;20178;-80
2023/03/05 03:26:58;;;;;;;10.10;1.63;;;4.30;99.90;;;;;;5102207;28;20230;-81
2023/03/05 03:29:23;;;;;;;4.47;1.90;;;4.40;99.90;;;;;;5101465;28;20174;-80
2023/03/05 03:31:49;;;;;;;5.37;1.87;;;4.30;99.90;;;;;;5101901;28;20248;-81
2023/03/05 03:34:16;;;;;;;13.07;2.83;;;4.30;99.90;;;;;;5083968;28;20190;-80
2023/03/05 03:36:43;;;;;;;7.77;1.63;;;4.30;99.90;;;;;;5102181;28;20723;-81
2023/03/05 03:39:09;;;;;;;6.70;1.60;;;4.30;99.90;;;;;;5084211;28;20213;-80
2023/03/05 03:41:39;;;;;;;4.03;1.50;;;4.30;99.90;;;;;;5102099;28;20186;-81
2023/03/05 03:44:07;;;;;;;7.07;1.97;;;4.30;99.90;;;;;;5101938;28;20174;-80
2023/03/05 03:46:33;;;;;;;6.47;1.73;;;4.30;99.90;;;;;;5102443;28;20167;-80
2023/03/05 03:48:59;;;;;;;4.53;1.70;;;4.30;99.90;;;;;;5088223;28;20667;-80
2023/03/05 03:51:25;;;;;;;9.67;1.77;;;4.30;99.90;;;;;;5106581;28;20198;-80
2023/03/05 03:53:50;;;;;;;5.57;1.77;;;4.30;99.90;;;;;;5088412;28;20227;-80
2023/03/05 03:56:16;;;;;;;7.33;1.97;;;4.20;99.90;;;;;;5088483;28;20209;-80
2023/03/05 03:58:41;;;;;;;11.03;2.57;;;4.20;99.90;;;;;;5088020;28;20196;-80
2023/03/05 04:01:07;;;;;;;6.43;1.80;;;4.30;99.90;;;;;;5105751;28;20186;-81
2023/03/05 04:03:32;;;;;;;7.67;1.67;;;4.20;99.90;;;;;;5106875;28;20166;-81
2023/03/05 04:05:58;;;;;;;10.90;1.90;;;4.20;99.90;;;;;;5090555;28;20269;-81
2023/03/05 04:08:23;;;;;;;5.97;1.77;;;4.20;99.90;;;;;;5111806;28;20181;-81
2023/03/05 04:10:49;;;;;;;12.97;2.37;;;4.20;99.90;;;;;;5092977;28;20194;-81
2023/03/05 04:13:14;;;;;;;11.77;1.93;;;4.20;99.90;;;;;;5104469;28;20327;-81
2023/03/05 04:15:40;;;;;;;7.43;1.80;;;4.20;99.90;;;;;;5104238;28;20175;-80
2023/03/05 04:18:06;;;;;;;6.97;2.20;;;4.20;99.90;;;;;;5086345;28;20206;-80
2023/03/05 04:20:31;;;;;;;10.13;2.37;;;4.10;99.90;;;;;;5085446;28;20189;-80
2023/03/05 04:22:57;;;;;;;4.73;1.67;;;4.10;99.90;;;;;;5086274;28;20217;-81
2023/03/05 04:25:22;;;;;;;9.70;1.70;;;4.20;99.90;;;;;;5104185;28;20204;-81
2023/03/05 04:27:48;;;;;;;4.53;1.80;;;4.20;99.90;;;;;;5103974;28;20178;-81
2023/03/05 04:30:14;;;;;;;6.00;1.97;;;4.20;99.90;;;;;;5085145;28;20173;-81
2023/03/05 04:32:40;;;;;;;9.60;2.17;;;4.20;99.90;;;;;;5104067;28;20178;-80
2023/03/05 04:35:06;;;;;;;10.97;2.60;;;4.10;99.90;;;;;;5085965;28;20181;-80
2023/03/05 04:37:32;;;;;;;6.47;1.17;;;4.20;99.90;;;;;;5087011;28;20202;-81
2023/03/05 04:39:57;;;;;;;7.77;1.57;;;4.20;99.90;;;;;;5085914;28;20223;-81
2023/03/05 04:42:23;;;;;;;9.73;2.00;;;4.20;99.90;;;;;;5103194;28;20198;-80
2023/03/05 04:44:50;;;;;;;8.10;1.80;;;4.20;99.90;;;;;;5103077;28;20178;-80
2023/03/05 04:47:17;;;;;;;12.23;2.07;;;4.10;99.90;;;;;;5084842;28;20196;-80
2023/03/05 04:49:43;;;;;;;3.83;1.40;;;4.10;99.90;;;;;;5102963;28;20210;-80
2023/03/05 04:52:10;;;;;;;4.60;2.20;;;4.10;99.90;;;;;;5084783;28;20201;-80
2023/03/05 04:54:36;;;;;;;5.17;1.97;;;4.10;99.90;;;;;;5084106;28;20182;-80
2023/03/05 04:57:02;;;;;;;8.30;1.80;;;4.20;99.90;;;;;;5103168;28;20196;-80
2023/03/05 04:59:28;;;;;;;13.70;2.20;;;4.10;99.90;;;;;;5100420;28;20602;-80
2023/03/05 05:01:54;;;;;;;7.13;1.90;;;4.10;99.90;;;;;;5084559;28;20381;-81
2023/03/05 05:04:19;;;;;;;7.50;2.07;;;4.10;99.90;;;;;;5084923;28;20170;-80
2023/03/05 05:06:45;;;;;;;7.10;2.07;;;4.10;99.90;;;;;;5103111;28;20185;-80
2023/03/05 05:09:10;;;;;;;10.00;1.93;;;4.10;99.90;;;;;;5084727;28;20178;-80
2023/03/05 05:11:36;;;;;;;8.77;2.10;;;4.10;99.90;;;;;;5085111;28;20281;-80
2023/03/05 05:14:02;;;;;;;6.43;2.00;;;4.00;99.90;;;;;;5103465;28;20178;-80
2023/03/05 05:16:28;;;;;;;4.50;1.50;;;4.00;99.90;;;;;;5085981;28;20569;-80
2023/03/05 05:18:53;;;;;;;7.57;1.80;;;4.00;99.90;;;;;;5103456;28;20201;-80
2023/03/05 05:21:19;;;;;;;8.03;2.23;;;4.00;99.90;;;;;;5085477;28;20197;-80
2023/03/05 05:23:45;;;;;;;8.13;1.90;;;4.00;99.90;;;;;;5103521;28;20583;-80
2023/03/05 05:26:13;;;;;;;5.83;2.10;;;4.00;99.90;;;;;;5103984;28;20253;-80
2023/03/05 05:28:42;;;;;;;6.00;2.27;;;4.00;99.90;;;;;;5084478;28;20659;-81
2023/03/05 05:31:09;;;;;;;6.03;1.73;;;4.00;99.90;;;;;;5101982;28;20182;-81
2023/03/05 05:33:35;;;;;;;10.97;2.70;;;4.00;99.90;;;;;;5083740;28;20650;-80
2023/03/05 05:36:03;;;;;;;8.90;1.80;;;4.00;99.90;;;;;;5102759;28;20192;-80
2023/03/05 05:38:29;;;;;;;5.90;2.43;;;4.00;99.90;;;;;;5102897;28;20170;-80
2023/03/05 05:40:59;;;;;;;3.50;1.70;;;4.00;99.90;;;;;;5102464;28;20247;-80
2023/03/05 05:43:25;;;;;;;5.57;1.83;;;4.00;99.90;;;;;;5084894;28;20174;-80
2023/03/05 05:45:50;;;;;;;6.43;1.83;;;4.00;99.90;;;;;;5103407;28;20162;-80
2023/03/05 05:48:16;;;;;;;6.67;2.00;;;4.00;99.90;;;;;;5102807;28;20174;-80
2023/03/05 05:50:41;;;;;;;8.67;2.40;;;4.00;99.90;;;;;;5085410;28;20231;-80
2023/03/05 05:53:07;;;;;;;6.63;1.93;;;4.00;99.90;;;;;;5085350;28;20652;-80
2023/03/05 05:55:32;;;;;;;5.93;2.10;;;4.00;99.90;;;;;;5085218;28;20760;-80
2023/03/05 05:57:58;;;;;;;8.03;2.33;;;4.00;99.90;;;;;;5085087;28;20198;-80
2023/03/05 06:00:24;;;;;;;9.17;2.40;;;4.00;99.90;;;;;;5084931;28;20195;-81
2023/03/05 06:02:49;;;;;;;6.23;2.00;;;4.00;99.90;;;;;;5083659;28;20179;-80
2023/03/05 06:05:15;;;;;;;6.07;2.07;;;4.00;99.90;;;;;;5083344;28;20209;-80
2023/03/05 06:07:41;;;;;;;8.63;2.00;;;4.00;99.90;;;;;;5101133;28;20584;-80
2023/03/05 06:10:08;;;;;;;4.57;2.47;;;4.00;99.90;;;;;;5101026;28;20209;-80
2023/03/05 06:12:34;;;;;;;5.70;2.00;;;4.00;99.90;;;;;;5082206;28;20253;-80
2023/03/05 06:14:59;;;;;;;6.60;2.03;;;4.00;99.90;;;;;;5082378;28;20175;-80
2023/03/05 06:17:26;;;;;;;13.33;2.70;;;4.00;99.90;;;;;;5082361;28;20737;-80
2023/03/05 06:19:54;;;;;;;11.57;2.57;;;4.00;99.90;;;;;;5101116;28;20170;-81
2023/03/05 06:22:19;;;;;;;6.90;2.00;;;4.00;99.90;;;;;;5101027;28;20190;-80
2023/03/05 06:24:45;;;;;;;7.83;2.10;;;4.00;99.90;;;;;;5082723;28;20189;-80
2023/03/05 06:27:10;;;;;;;8.90;2.20;;;4.00;99.90;;;;;;5100641;28;20196;-80
2023/03/05 06:29:36;;;;;;;5.17;2.33;;;4.00;99.90;;;;;;5099706;28;20588;-80
2023/03/05 06:32:02;;;;;;;10.73;3.10;;;4.00;99.90;;;;;;5081282;28;20200;-80
2023/03/05 06:34:28;;;;;;;8.73;3.47;;;4.10;99.90;;;;;;5099609;28;20185;-80
2023/03/05 06:36:53;;;;;;;8.67;2.37;;;4.10;99.90;;;;;;5100204;28;20205;-80
2023/03/05 06:39:19;;;;;;;12.37;2.50;;;4.10;99.90;;;;;;5081858;28;20182;-81
2023/03/05 06:41:44;;;;;;;8.70;2.67;;;4.10;99.90;;;;;;5081022;28;20242;-79
2023/03/05 06:44:10;;;;;;;5.53;2.37;;;4.10;99.90;;;;;;5099086;28;20541;-81
2023/03/05 06:46:36;;;;;;;9.90;2.60;;;4.10;99.90;;;;;;5098330;28;20625;-80
2023/03/05 06:49:02;;;;;;;9.30;2.20;;;4.10;99.90;;;;;;5098460;28;20551;-80
2023/03/05 06:51:34;;;;;;;4.67;2.30;;;4.10;99.90;;;;;;5098197;28;20200;-80
2023/03/05 06:54:03;;;;;;;7.17;2.40;;;4.20;99.90;;;;;;5098617;28;20170;-80
2023/03/05 06:56:29;;;;;;;8.17;2.80;;;4.20;99.90;;;;;;5098531;28;20198;-83
2023/03/05 06:58:55;;;;;;;7.30;3.00;;;4.20;99.90;;;;;;5080131;28;20185;-82
2023/03/05 07:01:22;;;;;;;10.50;3.30;;;4.20;99.90;;;;;;5098572;28;20189;-81
2023/03/05 07:03:49;;;;;;;10.30;3.37;;;4.20;99.90;;;;;;5098318;28;20165;-81
2023/03/05 07:06:15;;;;;;;5.67;2.70;;;4.20;99.90;;;;;;5080474;28;20170;-81
2023/03/05 07:08:40;;;;;;;11.63;3.83;;;4.30;99.90;;;;;;5080017;28;20182;-81
2023/03/05 07:11:11;;;;;;;8.93;3.63;;;4.30;99.90;;;;;;5098938;28;20253;-80
2023/03/05 07:13:37;;;;;;;9.50;3.80;;;4.30;99.90;;;;;;5094466;28;20179;-82
2023/03/05 07:16:08;;;;;;;10.77;3.93;;;4.30;99.90;;;;;;5079480;28;20211;-82
2023/03/05 07:18:34;;;;;;;9.27;3.93;;;4.30;99.90;;;;;;5098589;28;20197;-81
2023/03/05 07:21:04;;;;;;;11.37;4.87;;;4.40;99.90;;;;;;5080293;28;20673;-82
2023/03/05 07:23:30;;;;;;;13.10;3.97;;;4.40;99.90;;;;;;5079855;28;20178;-81
2023/03/05 07:25:56;;;;;;;9.67;3.60;;;4.30;99.90;;;;;;5097929;28;20632;-81
2023/03/05 07:28:21;;;;;;;7.73;3.20;;;4.30;99.90;;;;;;5097090;28;20174;-81
2023/03/05 07:30:55;;;;;;;12.83;3.60;;;4.20;99.90;;;;;;5078607;28;20209;-82
2023/03/05 07:33:21;;;;;;;7.67;2.80;;;4.30;99.90;;;;;;5097573;28;20170;-81
2023/03/05 07:35:46;;;;;;;7.70;2.90;;;4.30;99.90;;;;;;5078910;28;20174;-81
2023/03/05 07:38:12;;;;;;;8.73;3.23;;;4.30;99.90;;;;;;5097434;28;20209;-81
2023/03/05 07:40:38;;;;;;;6.77;2.70;;;4.30;99.90;;;;;;5097916;28;20538;-81
2023/03/05 07:43:03;;;;;;;5.87;2.93;;;4.30;99.90;;;;;;5101153;28;20189;-81
2023/03/05 07:45:29;;;;;;;5.70;2.80;;;4.30;99.90;;;;;;5106995;28;20200;-82
2023/03/05 07:47:55;;;;;;;7.33;2.90;;;4.30;99.90;;;;;;5083135;28;20194;-81
2023/03/05 07:50:21;;;;;;;10.10;3.33;;;4.30;99.90;;;;;;5096138;28;20227;-81
2023/03/05 07:52:46;;;;;;;6.70;2.90;;;4.30;99.90;;;;;;5095484;28;20182;-80
2023/03/05 07:55:12;;;;;;;6.00;2.30;;;4.30;99.90;;;;;;5095640;28;20182;-81
2023/03/05 07:57:37;;;;;;;11.07;2.90;;;4.30;99.90;;;;;;5076914;28;20233;-80
2023/03/05 08:00:05;;;;;;;6.23;3.13;;;4.30;99.90;;;;;;5077014;28;20181;-80
2023/03/05 08:02:30;;;;;;;8.37;2.80;;;4.30;99.90;;;;;;5076991;28;20558;-80
2023/03/05 08:04:56;;;;;;;7.33;2.50;;;4.30;99.90;;;;;;5077617;28;20178;-80
2023/03/05 08:07:21;;;;;;;8.67;3.23;;;4.20;99.90;;;;;;5095631;28;20221;-81
2023/03/05 08:09:47;;;;;;;12.40;3.10;;;4.20;99.90;;;;;;5095696;28;20174;-80
2023/03/05 08:12:12;;;;;;;5.67;2.57;;;4.20;99.90;;;;;;5095381;28;20271;-80
2023/03/05 08:14:38;;;;;;;4.83;2.50;;;4.20;99.90;;;;;;5095802;28;20182;-82
2023/03/05 08:17:04;;;;;;;12.67;3.50;;;4.20;99.90;;;;;;5095443;28;20214;-82
2023/03/05 08:19:30;;;;;;;10.43;3.43;;;4.20;99.90;;;;;;5077217;28;20167;-81
2023/03/05 08:21:56;;;;;;;8.77;3.90;;;4.20;99.90;;;;;;5069337;28;20198;-80
2023/03/05 08:24:28;;;;;;;12.70;3.90;;;4.20;99.90;;;;;;5078447;28;20208;-81
2023/03/05 08:26:57;;;;;;;14.70;3.93;;;4.30;99.90;;;;;;5094537;28;20186;-81
2023/03/05 08:29:23;;;;;;;9.37;4.20;;;4.40;99.90;;;;;;5092488;28;20197;-80
2023/03/05 08:31:49;;;;;;;7.70;3.27;;;4.40;99.90;;;;;;5094360;28;20202;-80
2023/03/05 08:34:16;;;;;;;10.73;3.90;;;4.40;99.90;;;;;;5102660;28;20607;-80
2023/03/05 08:36:41;;;;;;;9.80;3.87;;;4.40;99.90;;;;;;5098319;28;20221;-81
2023/03/05 08:39:08;;;;;;;7.67;4.00;;;4.40;99.90;;;;;;5098494;28;20185;-81
2023/03/05 08:41:34;;;;;;;9.57;3.63;;;4.40;99.90;;;;;;5098259;28;20190;-81
2023/03/05 08:44:00;;;;;;;7.40;3.07;;;4.40;99.90;;;;;;5098151;28;20170;-81
2023/03/05 08:46:26;;;;;;;7.03;3.07;;;4.40;99.90;;;;;;5098157;28;20193;-81
2023/03/05 08:48:51;;;;;;;7.87;3.23;;;4.40;99.90;;;;;;5097748;28;20182;-80
2023/03/05 08:51:19;;;;;;;13.93;3.60;;;4.50;99.90;;;;;;5097656;28;20292;-81
2023/03/05 08:53:45;;;;;;;11.07;4.67;;;4.50;99.90;;;;;;5098146;28;20191;-81
2023/03/05 08:56:11;;;;;;;8.60;4.40;;;4.50;99.90;;;;;;5080967;28;20671;-81
2023/03/05 08:58:37;;;;;;;8.67;4.87;;;4.50;99.90;;;;;;5083188;28;20205;-81
2023/03/05 09:01:03;;;;;;;9.17;5.83;;;4.60;99.90;;;;;;5081613;28;20598;-82
2023/03/05 09:03:29;;;;;;;13.10;6.90;;;4.60;99.90;;;;;;5100614;28;20258;-82
2023/03/05 09:05:59;;;;;;;9.77;5.37;;;4.60;99.90;;;;;;5100345;28;20201;-82
2023/03/05 09:08:25;;;;;;;9.53;5.37;;;4.60;99.90;;;;;;5082352;28;20178;-82
2023/03/05 09:10:50;;;;;;;16.90;7.10;;;4.70;99.90;;;;;;5082260;28;20198;-82
2023/03/05 09:13:16;;;;;;;15.90;7.50;;;4.70;99.90;;;;;;5100481;28;20237;-81
2023/03/05 09:15:41;;;;;;;13.03;7.00;;;4.60;99.90;;;;;;5100222;28;20174;-81
2023/03/05 09:18:08;;;;;;;13.60;6.77;;;4.70;99.90;;;;;;5099927;28;20703;-81
2023/03/05 09:20:34;;;;;;;11.83;5.67;;;4.80;99.90;;;;;;5081559;28;20635;-81
2023/03/05 09:23:00;;;;;;;13.10;6.03;;;4.80;99.90;;;;;;5081229;28;20204;-81
2023/03/05 09:25:26;;;;;;;15.17;5.97;;;4.80;99.90;;;;;;5081634;28;20182;-81
2023/03/05 09:27:51;;;;;;;12.33;4.80;;;4.80;99.90;;;;;;5100485;28;20530;-81
2023/03/05 09:30:17;;;;;;;14.17;5.87;;;4.80;99.90;;;;;;5081053;28;20182;-81
2023/03/05 09:32:42;;;;;;;9.23;5.67;;;4.90;99.90;;;;;;5081640;28;20182;-80
2023/03/05 09:35:09;;;;;;;11.67;5.60;;;4.90;99.90;;;;;;5081707;28;20178;-81
2023/03/05 09:37:34;;;;;;;11.77;4.73;;;5.00;99.90;;;;;;5099832;28;20263;-81
2023/03/05 09:40:00;;;;;;;7.90;4.40;;;5.10;99.90;;;;;;5100072;28;20170;-80
2023/03/05 09:42:56;;;;;;;8.93;3.97;;;5.10;99.90;;;;;;5079792;28;20210;-80
2023/03/05 09:45:29;;;;;;;12.23;3.87;;;5.10;99.90;;;;;;5095017;28;20163;-81
2023/03/05 09:48:24;;;;;;;6.03;3.57;;;5.10;99.90;;;;;;5061343;28;20218;-81
2023/03/05 09:50:58;;;;;;;9.10;3.60;;;5.10;99.90;;;;;;5081119;28;20577;-80
2023/03/05 09:53:45;;;;;;;4.80;2.83;;;5.00;99.90;;;;;;5081662;28;20171;-80
2023/03/05 09:56:33;;;;;;;5.90;3.30;;;5.10;99.90;;;;;;5104577;28;20175;-81
2023/03/05 09:59:28;;;;;;;6.97;3.10;;;5.10;99.90;;;;;;5071581;28;20201;-81
2023/03/05 10:02:01;;;;;;;3.53;2.77;;;5.20;99.90;;;;;;5062758;28;20194;-81
2023/03/05 10:04:44;;;;;;;6.03;2.80;;;5.30;99.90;;;;;;5079419;28;20237;-80
2023/03/05 10:07:30;;;;;;;3.83;2.50;;;5.30;99.90;;;;;;5078807;28;20147;-80
2023/03/05 10:10:07;;;;;;;4.10;2.87;;;5.40;99.90;;;;;;5078778;28;20163;-80
2023/03/05 10:12:44;;;;;;;3.30;2.77;;;5.40;99.90;;;;;;5079251;28;20274;-81
2023/03/05 10:15:24;;;;;;;3.47;2.20;;;5.40;99.90;;;;;;5078949;28;20159;-80
2023/03/05 10:18:23;;;;;;;7.50;2.90;;;5.50;99.90;;;;;;5078607;28;20289;-80
2023/03/05 10:20:54;;;;;;;3.37;2.37;;;5.50;99.90;;;;;;5077539;28;20279;-80
2023/03/05 10:23:47;;;;;;;5.80;2.83;;;5.50;99.90;;;;;;5078299;28;20526;-80
2023/03/05 10:26:56;;;;;;;3.07;2.40;;;5.50;99.90;;;;;;5061192;28;20174;-80
2023/03/05 10:29:37;;;;;;;3.57;2.53;;;5.60;99.90;;;;;;5070602;28;20499;-80
2023/03/05 10:32:37;;;;;;;6.73;2.20;;;5.70;99.90;;;;;;5077942;28;20717;-80
2023/03/05 10:35:34;;;;;;;4.87;2.30;;;5.70;99.90;;;;;;5056845;28;20269;-80
2023/03/05 10:38:16;;;;;;;3.10;1.87;;;5.70;99.90;;;;;;5051552;28;20275;-81
2023/03/05 10:40:47;;;;;;;4.13;2.57;;;5.70;99.90;;;;;;5059634;28;20604;-80
2023/03/05 10:43:45;;;;;;;8.30;2.37;;;5.70;99.90;;;;;;5077791;28;20175;-80
2023/03/05 10:46:18;;;;;;;4.73;2.23;;;5.70;99.90;;;;;;5054499;28;20187;-80
2023/03/05 10:48:54;;;;;;;3.60;2.30;;;5.60;99.90;;;;;;5078735;28;20647;-81
2023/03/05 10:51:40;;;;;;;4.47;2.07;;;5.60;99.90;;;;;;5079015;28;20198;-81
2023/03/05 10:54:24;;;;;;;3.83;2.10;;;5.50;99.90;;;;;;5078402;28;20155;-80
2023/03/05 10:56:50;;;;;;;2.57;2.17;;;5.40;99.90;;;;;;5078838;28;20189;-81
2023/03/05 10:59:15;;;;;;;5.37;2.20;;;5.40;99.90;;;;;;5078573;28;20251;-81
2023/03/05 11:01:41;;;;;;;4.80;2.10;;;5.40;99.90;;;;;;5059339;28;20187;-80
2023/03/05 11:04:26;;;;;;;5.90;2.50;;;5.40;99.90;;;;;;5077798;28;20273;-82
2023/03/05 11:06:51;;;;;;;8.83;2.60;;;5.50;99.90;;;;;;5078016;28;20163;-81
2023/03/05 11:09:23;;;;;;;5.40;2.30;;;5.70;99.90;;;;;;5077854;28;20254;-81
2023/03/05 11:12:15;;;;;;;4.60;2.30;;;5.60;99.90;;;;;;5059675;28;20198;-82
2023/03/05 11:14:45;;;;;;;6.37;2.30;;;5.70;99.90;;;;;;5059833;28;20742;-80
2023/03/05 11:17:47;;;;;;;4.10;2.10;;;5.70;99.90;;;;;;5059683;28;20260;-81
2023/03/05 11:20:33;;;;;;;3.00;2.03;;;5.80;99.90;;;;;;5039041;28;20656;-80
2023/03/05 11:23:09;;;;;;;6.33;2.03;;;5.80;99.90;;;;;;5059831;28;20163;-81
2023/03/05 11:25:50;;;;;;;3.83;1.93;;;5.90;99.90;;;;;;5059422;28;20179;-80
2023/03/05 11:28:37;;;;;;;3.13;2.07;;;6.00;99.90;;;;;;5078418;28;20183;-81
2023/03/05 11:31:06;;;;;;;4.90;2.47;;;6.10;99.90;;;;;;5078115;28;20320;-81
2023/03/05 11:33:34;;;;;;;3.70;1.97;;;6.10;99.90;;;;;;5061076;28;20179;-83
2023/03/05 11:36:20;;;;;;;2.37;1.43;;;6.50;99.90;;;;;;5060329;28;20270;-82
2023/03/05 11:38:51;;;;;;;2.57;1.50;;;6.30;99.90;;;;;;5078047;28;20233;-82
2023/03/05 11:41:23;;;;;;;3.80;1.90;;;6.20;99.90;;;;;;5059388;28;20259;-82
2023/03/05 11:43:52;;;;;;;3.03;1.70;;;6.20;99.90;;;;;;5077587;28;20195;-82
2023/03/05 11:46:19;;;;;;;4.50;1.83;;;6.30;99.90;;;;;;5081996;28;20277;-83
2023/03/05 11:48:46;;;;;;;4.40;1.63;;;6.40;99.90;;;;;;5060063;28;20171;-82
2023/03/05 11:51:25;;;;;;;2.73;1.50;;;6.50;99.90;;;;;;5059954;28;20187;-82
2023/03/05 11:53:58;;;;;;;2.20;1.50;;;6.40;99.90;;;;;;5078341;28;20155;-83
2023/03/05 11:56:28;;;;;;;2.43;1.40;;;6.50;99.90;;;;;;5061010;28;20254;-82
2023/03/05 11:59:03;;;;;;;6.37;1.63;;;6.60;99.90;;;;;;5077858;28;20166;-82
2023/03/05 12:01:38;;;;;;;2.07;1.50;;;6.60;99.90;;;;;;5059524;28;20209;-81
2023/03/05 12:04:04;;;;;;;2.67;1.40;;;6.70;99.90;;;;;;5059540;28;20179;-81
2023/03/05 12:06:48;;;;;;;5.57;1.43;;;6.80;99.90;;;;;;5059877;28;20178;-80
2023/03/05 12:09:39;;;;;;;4.17;1.13;;;6.80;99.90;;;;;;5063408;28;20221;-80
2023/03/05 12:12:21;;;;;;;3.30;1.40;;;6.70;99.90;;;;;;5086612;28;20190;-81
2023/03/05 12:15:12;;;;;;;4.13;1.73;;;6.70;99.90;;;;;;5068683;28;20174;-80
2023/03/05 12:18:13;;;;;;;3.83;2.03;;;6.70;99.90;;;;;;5054912;28;20211;-80
2023/03/05 12:21:24;;;;;;;5.33;2.30;;;6.70;99.90;;;;;;5081991;28;20218;-82
2023/03/05 12:24:00;;;;;;;3.00;2.10;;;6.80;99.90;;;;;;5063684;28;20238;-81
2023/03/05 12:27:03;;;;;;;2.03;1.73;;;6.80;99.90;;;;;;5062259;28;20167;-81
2023/03/05 12:29:32;;;;;;;2.47;1.80;;;6.70;99.90;;;;;;5061742;28;20193;-82
2023/03/05 12:32:01;;;;;;;3.10;2.13;;;6.70;99.90;;;;;;5079691;28;20755;-81
2023/03/05 12:34:46;;;;;;;3.67;2.83;;;6.70;99.90;;;;;;5061409;28;20320;-82
2023/03/05 12:37:32;;;;;;;3.33;2.80;;;6.70;99.90;;;;;;5079420;28;20312;-82
2023/03/05 12:40:19;;;;;;;2.97;2.57;;;6.60;99.90;;;;;;5050572;28;20193;-81
2023/03/05 12:42:53;;;;;;;4.57;2.80;;;6.60;99.90;;;;;;5078799;28;20169;-81
2023/03/05 12:45:24;;;;;;;5.77;2.77;;;6.60;99.90;;;;;;5080710;28;20170;-81
2023/03/05 12:47:55;;;;;;;4.47;2.30;;;6.70;99.90;;;;;;5079520;28;20197;-82
2023/03/05 12:50:27;;;;;;;5.20;2.17;;;6.60;99.90;;;;;;5079841;28;20185;-82
2023/03/05 12:53:03;;;;;;;5.40;2.43;;;6.70;99.90;;;;;;5078880;28;20242;-82
2023/03/05 12:55:34;;;;;;;3.47;2.33;;;6.70;99.90;;;;;;5061735;28;20181;-82
2023/03/05 12:58:06;;;;;;;3.13;2.20;;;6.80;99.90;;;;;;5080123;28;20209;-81
2023/03/05 13:00:48;;;;;;;7.17;3.10;;;6.70;99.90;;;;;;5079665;28;20195;-80
2023/03/05 13:03:18;;;;;;;7.37;2.77;;;6.70;99.90;;;;;;5081991;28;20707;-79
2023/03/05 13:06:06;;;;;;;7.00;3.27;;;6.60;99.90;;;;;;5081622;28;20213;-80
2023/03/05 13:08:37;;;;;;;5.03;3.30;;;6.70;99.90;;;;;;5064930;28;20728;-80
2023/03/05 13:11:14;;;;;;;5.70;2.93;;;6.60;99.90;;;;;;5083821;28;20339;-80